Time;durP1;ratioP1;P1;durP2;ratioP2;P2;SDS_P1;SDS_P2;PMS_P1;PMS_P2;Temp;Humidity;BMP_temperature;BMP_pressure;BME280_temperature;BME280_humidity;BME280_pressure;Samples;Min_cycle;Max_cycle;Signal;HPM_P1;HPM_P2
2024/02/23 00:00:24;;;;;;;0.00;0.00;;;;;;;10.36;81.89;98039.88;15867060;28;20069;-46
2024/02/23 00:07:57;;;;;;;0.00;0.00;;;;;;;10.32;81.72;98052.22;15861392;28;20039;-48
2024/02/23 00:15:33;;;;;;;0.20;0.20;;;;;;;10.42;81.16;98048.69;15866078;28;20047;-49
2024/02/23 00:23:06;;;;;;;0.00;0.00;;;;;;;10.55;80.27;98037.38;15866686;28;20114;-49
2024/02/23 00:30:42;;;;;;;0.00;0.00;;;;;;;10.73;79.24;98022.53;15847838;28;20028;-46
2024/02/23 00:38:17;;;;;;;0.00;0.00;;;;;;;10.50;79.39;98034.72;15865282;28;20381;-47
2024/02/23 00:45:55;;;;;;;0.00;0.00;;;;;;;10.43;79.29;98048.41;15858439;28;20546;-48
2024/02/23 00:53:29;;;;;;;0.00;0.00;;;;;;;10.57;77.73;98070.06;15846233;28;20081;-51
2024/02/23 01:01:06;;;;;;;0.22;0.22;;;;;;;10.75;76.68;98081.25;15864006;28;20138;-47
2024/02/23 01:08:41;;;;;;;0.00;0.00;;;;;;;10.64;76.21;98101.97;15827802;28;20151;-50
2024/02/23 01:16:16;;;;;;;0.00;0.00;;;;;;;10.79;74.78;98115.31;15863230;28;20083;-50
2024/02/23 01:23:50;;;;;;;0.00;0.00;;;;;;;10.87;73.95;98135.41;15842408;28;20480;-51
2024/02/23 01:31:26;;;;;;;0.70;0.70;;;;;;;10.97;72.50;98143.41;15862487;28;20067;-49
2024/02/23 01:39:00;;;;;;;0.00;0.00;;;;;;;10.99;70.91;98146.59;15861116;28;20047;-51
2024/02/23 01:46:35;;;;;;;0.00;0.00;;;;;;;10.90;68.49;98188.50;15855133;28;20056;-48
2024/02/23 01:54:10;;;;;;;0.28;0.10;;;;;;;10.68;61.59;98213.03;15843210;28;20122;-48
2024/02/23 02:01:46;;;;;;;0.00;0.00;;;;;;;10.65;60.29;98261.84;15835613;28;20126;-50
2024/02/23 02:09:20;;;;;;;0.00;0.00;;;;;;;10.20;57.24;98299.13;15843066;28;20140;-48
2024/02/23 02:16:57;;;;;;;0.00;0.00;;;;;;;10.00;56.56;98339.31;15853258;28;20395;-49
2024/02/23 02:24:35;;;;;;;0.00;0.00;;;;;;;9.74;55.97;98369.78;15844769;28;20074;-48
2024/02/23 02:32:10;;;;;;;0.00;0.00;;;;;;;9.75;55.97;98401.69;15843105;28;20050;-50
2024/02/23 02:39:44;;;;;;;0.00;0.00;;;;;;;9.64;57.30;98403.47;15841592;28;20123;-49
2024/02/23 02:47:19;;;;;;;0.00;0.00;;;;;;;9.38;56.97;98412.47;15840734;28;20062;-50
2024/02/23 02:54:52;;;;;;;0.00;0.00;;;;;;;9.45;56.78;98429.09;15833776;28;20127;-46
2024/02/23 03:02:29;;;;;;;0.00;0.00;;;;;;;9.24;57.44;98438.91;15859888;28;20035;-49
2024/02/23 03:10:07;;;;;;;0.00;0.00;;;;;;;9.11;57.48;98458.06;15840788;28;20134;-50
2024/02/23 03:17:43;;;;;;;0.00;0.00;;;;;;;9.07;56.84;98460.44;15819222;28;20055;-49
2024/02/23 03:25:17;;;;;;;0.00;0.00;;;;;;;9.23;55.93;98471.25;15840567;28;20031;-49
2024/02/23 03:32:52;;;;;;;0.00;0.00;;;;;;;9.03;56.23;98479.94;15844191;28;20051;-49
2024/02/23 03:40:27;;;;;;;0.20;0.20;;;;;;;9.17;55.96;98503.34;15868405;28;20043;-50
2024/02/23 03:48:05;;;;;;;0.00;0.00;;;;;;;9.10;57.21;98518.00;15844128;28;20048;-49
2024/02/23 03:55:39;;;;;;;0.00;0.00;;;;;;;8.94;57.53;98541.94;15833423;28;20097;-52
2024/02/23 04:03:15;;;;;;;0.00;0.00;;;;;;;8.56;56.28;98502.78;15859644;28;20086;-52
2024/02/23 04:10:51;;;;;;;0.00;0.00;;;;;;;9.16;55.28;98575.88;15859260;28;20043;-50
2024/02/23 04:18:33;;;;;;;0.00;0.00;;;;;;;8.81;55.98;98621.78;15849183;28;20051;-52
2024/02/23 04:26:07;;;;;;;0.00;0.00;;;;;;;8.59;56.33;98636.00;15859255;28;20065;-56
2024/02/23 04:33:42;;;;;;;0.00;0.00;;;;;;;8.45;55.29;98650.00;15848707;28;20040;-52
2024/02/23 04:41:22;;;;;;;0.00;0.00;;;;;;;8.50;55.34;98658.06;15867619;28;20063;-55
2024/02/23 04:48:57;;;;;;;0.00;0.00;;;;;;;8.24;55.64;98699.63;15860476;28;20043;-50
2024/02/23 04:56:31;;;;;;;0.00;0.00;;;;;;;8.21;55.26;98713.47;15848512;28;20089;-52
2024/02/23 05:04:08;;;;;;;0.00;0.00;;;;;;;8.13;55.59;98734.22;15849870;28;20496;-51
2024/02/23 05:11:43;;;;;;;0.00;0.00;;;;;;;7.97;55.66;98744.91;15835021;28;20031;-53
2024/02/23 05:19:21;;;;;;;0.00;0.00;;;;;;;7.86;56.21;98766.09;15854467;28;20454;-52
2024/02/23 05:26:57;;;;;;;0.00;0.00;;;;;;;7.78;56.83;98784.38;15868421;28;20048;-52
2024/02/23 05:34:36;;;;;;;0.00;0.00;;;;;;;7.30;56.16;98807.78;15838200;28;20102;-51
2024/02/23 05:42:11;;;;;;;0.00;0.00;;;;;;;7.42;54.89;98834.44;15864487;28;20412;-54
2024/02/23 05:49:48;;;;;;;0.00;0.00;;;;;;;7.10;54.17;98863.41;15838731;28;20067;-52
2024/02/23 05:57:21;;;;;;;0.00;0.00;;;;;;;7.10;55.19;98858.88;15827636;28;20077;-53
2024/02/23 06:04:57;;;;;;;0.05;0.05;;;;;;;7.46;54.34;98878.31;15854993;28;20045;-52
2024/02/23 06:12:31;;;;;;;0.00;0.00;;;;;;;7.61;54.87;98901.84;15825820;28;20050;-51
2024/02/23 06:20:09;;;;;;;0.00;0.00;;;;;;;6.95;56.14;98946.56;15863085;28;20043;-52
2024/02/23 06:27:46;;;;;;;0.00;0.00;;;;;;;6.78;55.76;98906.41;15862673;28;20371;-52
2024/02/23 06:35:22;;;;;;;0.00;0.00;;;;;;;7.14;56.63;98952.59;15861263;28;20044;-53
2024/02/23 06:42:56;;;;;;;0.00;0.00;;;;;;;7.08;57.29;98974.84;15862800;28;20118;-52
2024/02/23 06:50:34;;;;;;;0.00;0.00;;;;;;;7.41;57.25;98974.25;15855168;28;20146;-52
2024/02/23 06:58:10;;;;;;;0.00;0.00;;;;;;;7.37;57.58;99018.50;15843550;28;20040;-55
2024/02/23 07:05:47;;;;;;;0.00;0.00;;;;;;;7.67;56.99;99019.19;15864470;28;20086;-53
2024/02/23 07:13:20;;;;;;;0.00;0.00;;;;;;;8.14;56.09;99035.13;15854967;28;20381;-52
2024/02/23 07:20:57;;;;;;;0.00;0.00;;;;;;;8.26;55.22;99035.13;15873279;28;20047;-52
2024/02/23 07:28:32;;;;;;;0.00;0.00;;;;;;;8.22;55.47;99046.53;15852257;28;20526;-53
2024/02/23 07:36:16;;;;;;;0.00;0.00;;;;;;;8.29;55.34;99052.53;15871030;28;20039;-53
2024/02/23 07:43:54;;;;;;;0.00;0.00;;;;;;;8.39;55.82;99050.94;15856366;28;20157;-52
2024/02/23 07:51:28;;;;;;;;;;;;;;;7.86;56.48;99059.94;15858663;28;20059;-54
2024/02/23 07:59:03;;;;;;;1.52;0.08;;;;;;;8.41;56.06;99102.28;15863615;28;19924;-54
2024/02/23 08:06:38;;;;;;;0.00;0.00;;;;;;;9.68;51.91;99103.75;15862218;28;20043;-51
2024/02/23 08:14:12;;;;;;;0.00;0.00;;;;;;;10.25;50.93;99107.28;15856288;28;20131;-51
2024/02/23 08:21:47;;;;;;;0.00;0.00;;;;;;;9.67;50.39;99133.47;15844269;28;20048;-53
2024/02/23 08:29:21;;;;;;;0.00;0.00;;;;;;;9.51;51.86;99153.81;15837624;28;20047;-53
2024/02/23 08:36:56;;;;;;;0.00;0.00;;;;;;;8.63;53.35;99149.78;15846643;28;20089;-53
2024/02/23 08:44:31;;;;;;;0.00;0.00;;;;;;;8.61;54.21;99152.69;15865344;28;20119;-51
2024/02/23 08:52:08;;;;;;;0.00;0.00;;;;;;;8.93;54.98;99161.09;15862530;28;20051;-50
2024/02/23 08:59:42;;;;;;;0.00;0.00;;;;;;;8.99;54.99;99164.66;15869158;28;20044;-53
2024/02/23 09:07:19;;;;;;;0.00;0.00;;;;;;;9.64;52.34;99158.88;15848221;28;20043;-53
2024/02/23 09:14:54;;;;;;;0.00;0.00;;;;;;;9.67;51.28;99173.66;15861977;28;20447;-51
2024/02/23 09:22:29;;;;;;;0.10;0.10;;;;;;;10.99;49.11;99188.97;15849707;28;20050;-51
2024/02/23 09:30:07;;;;;;;0.00;0.00;;;;;;;9.87;51.38;99191.94;15861825;28;20070;-51
2024/02/23 09:37:42;;;;;;;0.00;0.00;;;;;;;10.29;50.50;99204.94;15864192;28;20130;-50
2024/02/23 09:45:17;;;;;;;0.00;0.00;;;;;;;10.16;51.90;99214.09;15868233;28;20039;-53
2024/02/23 09:52:52;;;;;;;0.00;0.00;;;;;;;10.28;50.87;99248.91;15847502;28;20093;-56
2024/02/23 10:00:28;;;;;;;0.00;0.00;;;;;;;11.62;49.60;99240.41;15858700;28;20035;-53
2024/02/23 10:08:03;;;;;;;0.00;0.00;;;;;;;11.09;49.28;99217.00;15931157;22;20149;-50
2024/02/23 10:15:38;;;;;;;0.00;0.00;;;;;;;10.23;48.81;99245.06;16048521;27;20454;-55
2024/02/23 10:23:16;;;;;;;1.88;0.47;;;;;;;10.29;48.08;99250.53;15965435;27;20083;-54
2024/02/23 10:30:49;;;;;;;0.00;0.00;;;;;;;10.43;46.99;99236.53;15915698;27;20039;-55
2024/02/23 10:38:27;;;;;;;0.00;0.00;;;;;;;10.47;47.74;99250.28;15950794;27;20146;-56
2024/02/23 10:46:02;;;;;;;0.00;0.00;;;;;;;10.18;47.22;99250.34;15945821;27;20469;-56
2024/02/23 10:53:40;;;;;;;0.00;0.00;;;;;;;11.25;45.64;99253.72;15970402;27;20161;-52
2024/02/23 11:01:14;;;;;;;0.00;0.00;;;;;;;10.22;46.26;99261.41;15980429;27;20073;-54
2024/02/23 11:09:08;;;;;;;0.00;0.00;;;;;;;10.49;46.32;99264.22;15978905;27;20121;-52
2024/02/23 11:16:42;;;;;;;0.00;0.00;;;;;;;10.81;44.60;99267.09;15995141;27;20043;-55
2024/02/23 11:24:17;;;;;;;0.00;0.00;;;;;;;10.61;44.64;99273.00;15943501;27;20122;-51
2024/02/23 11:31:55;;;;;;;0.00;0.00;;;;;;;10.58;44.96;99276.19;15973525;27;20077;-54
2024/02/23 11:39:32;;;;;;;0.00;0.00;;;;;;;11.26;45.50;99262.59;15944325;27;20054;-53
2024/02/23 11:47:08;;;;;;;0.00;0.00;;;;;;;10.42;45.47;99271.66;15891507;27;20067;-54
2024/02/23 11:54:43;;;;;;;0.00;0.00;;;;;;;10.53;45.45;99289.53;15941962;27;20104;-56
2024/02/23 12:02:18;;;;;;;0.10;0.10;;;;;;;10.47;44.83;99285.94;15947890;27;20123;-52
2024/02/23 12:09:54;;;;;;;0.00;0.00;;;;;;;11.16;43.38;99287.44;15941228;27;20484;-53
2024/02/23 12:17:28;;;;;;;0.00;0.00;;;;;;;10.58;43.97;99292.28;15916008;27;20067;-53
2024/02/23 12:25:10;;;;;;;0.00;0.00;;;;;;;10.79;45.81;99300.63;15934036;27;20645;-54
2024/02/23 12:32:46;;;;;;;0.00;0.00;;;;;;;10.53;45.08;99321.72;15930645;27;20460;-51
2024/02/23 12:40:23;;;;;;;0.00;0.00;;;;;;;10.23;46.35;99311.28;15917066;27;20050;-55
2024/02/23 12:47:58;;;;;;;0.00;0.00;;;;;;;10.43;46.45;99330.41;15893390;27;20051;-51
2024/02/23 12:55:34;;;;;;;0.00;0.00;;;;;;;10.29;47.11;99317.56;15922257;27;20074;-51
2024/02/23 13:03:07;;;;;;;0.00;0.00;;;;;;;9.92;48.39;99334.88;15932872;27;20363;-49
2024/02/23 13:10:43;;;;;;;0.00;0.00;;;;;;;9.54;47.85;99327.47;15942104;27;20406;-54
2024/02/23 13:18:17;;;;;;;0.00;0.00;;;;;;;9.34;48.45;99338.59;15929082;27;20089;-53
2024/02/23 13:25:54;;;;;;;0.00;0.00;;;;;;;9.71;47.40;99328.34;15961445;27;20570;-51
2024/02/23 13:33:29;;;;;;;0.00;0.00;;;;;;;9.73;48.06;99335.31;15932453;27;20471;-53
2024/02/23 13:41:05;;;;;;;0.95;0.90;;;;;;;9.52;48.39;99334.94;15941199;27;20046;-51
2024/02/23 13:48:39;;;;;;;0.00;0.00;;;;;;;9.62;46.87;99353.88;15940089;27;20050;-52
2024/02/23 13:56:14;;;;;;;0.00;0.00;;;;;;;9.30;47.53;99347.31;15912640;27;20048;-54
2024/02/23 14:03:47;;;;;;;0.13;0.13;;;;;;;9.07;48.20;99338.28;15905672;27;20054;-50
2024/02/23 14:11:23;;;;;;;0.00;0.00;;;;;;;9.26;47.36;99348.84;15914637;27;20487;-51
2024/02/23 14:18:56;;;;;;;0.00;0.00;;;;;;;9.26;48.51;99355.00;15920590;27;20051;-52
2024/02/23 14:26:33;;;;;;;0.00;0.00;;;;;;;8.96;48.87;99346.31;15966973;27;20054;-50
2024/02/23 14:34:08;;;;;;;0.00;0.00;;;;;;;9.21;48.63;99346.88;15947003;27;20041;-50
2024/02/23 14:41:54;;;;;;;0.00;0.00;;;;;;;9.48;48.81;99365.91;15912247;27;20039;-51
2024/02/23 14:49:32;;;;;;;0.00;0.00;;;;;;;9.44;49.48;99380.81;15909924;27;20043;-51
2024/02/23 14:57:09;;;;;;;0.00;0.00;;;;;;;9.83;49.19;99379.19;15940395;27;20387;-51
2024/02/23 15:04:42;;;;;;;0.30;0.30;;;;;;;9.53;49.18;99378.59;15926329;27;20441;-51
2024/02/23 15:12:18;;;;;;;0.00;0.00;;;;;;;9.02;50.05;99390.88;15937002;27;20038;-49
2024/02/23 15:19:51;;;;;;;0.20;0.20;;;;;;;9.01;50.06;99402.63;15939069;27;20051;-50
2024/02/23 15:27:27;;;;;;;3.65;0.28;;;;;;;9.23;50.24;99384.91;15986187;27;20061;-51
2024/02/23 15:35:02;;;;;;;0.00;0.00;;;;;;;8.92;50.28;99376.22;15949706;27;20058;-49
2024/02/23 15:42:39;;;;;;;0.00;0.00;;;;;;;8.85;51.10;99382.72;15931982;27;20125;-50
2024/02/23 15:50:13;;;;;;;0.00;0.00;;;;;;;8.93;51.36;99396.56;15909295;27;20047;-54
2024/02/23 15:57:48;;;;;;;0.00;0.00;;;;;;;8.75;51.62;99387.84;15929520;27;20485;-52
2024/02/23 16:05:22;;;;;;;0.20;0.10;;;;;;;8.67;51.70;99391.66;15928886;27;20150;-51
2024/02/23 16:12:58;;;;;;;0.80;0.80;;;;;;;8.79;51.51;99379.13;15811469;22;20055;-52
2024/02/23 16:20:32;;;;;;;0.00;0.00;;;;;;;8.51;52.04;99363.75;15771041;28;20094;-51
2024/02/23 16:28:08;;;;;;;0.10;0.10;;;;;;;8.68;51.82;99351.31;15740651;28;20199;-51
2024/02/23 16:35:41;;;;;;;0.00;0.00;;;;;;;8.48;52.27;99396.28;15762479;28;20037;-51
2024/02/23 16:43:17;;;;;;;0.00;0.00;;;;;;;8.41;52.47;99412.44;15747299;28;20044;-54
2024/02/23 16:50:51;;;;;;;0.00;0.00;;;;;;;8.36;52.30;99423.00;15741359;28;20067;-52
2024/02/23 16:58:32;;;;;;;0.00;0.00;;;;;;;7.83;53.76;99422.84;15758725;28;20070;-54
2024/02/23 17:06:09;;;;;;;0.00;0.00;;;;;;;7.71;54.68;99446.03;15746831;28;20381;-53
2024/02/23 17:13:44;;;;;;;;;;;;;;;7.49;55.06;99438.44;15859652;28;20040;-50
2024/02/23 17:21:17;;;;;;;0.10;0.10;;;;;;;7.95;54.05;99436.28;15863676;28;20182;-54
2024/02/23 17:28:52;;;;;;;0.00;0.00;;;;;;;7.67;54.91;99434.97;15844300;28;20112;-56
2024/02/23 17:36:29;;;;;;;0.00;0.00;;;;;;;7.69;54.68;99424.88;15861659;28;20035;-54
2024/02/23 17:44:05;;;;;;;1.15;0.70;;;;;;;7.61;55.34;99426.00;15861500;28;20221;-49
2024/02/23 17:51:38;;;;;;;10.35;2.83;;;;;;;7.92;54.91;99424.19;15859924;28;20150;-53
2024/02/23 17:59:14;;;;;;;3.05;0.57;;;;;;;7.97;54.96;99435.00;15860305;28;20139;-52
2024/02/23 18:06:50;;;;;;;1.33;1.23;;;;;;;7.74;55.18;99451.75;15860878;28;20035;-51
2024/02/23 18:14:26;;;;;;;0.10;0.10;;;;;;;7.74;55.61;99465.09;15839644;28;20036;-49
2024/02/23 18:22:00;;;;;;;0.40;0.35;;;;;;;7.08;57.45;99447.06;15840523;28;20039;-53
2024/02/23 18:29:35;;;;;;;1.02;0.95;;;;;;;6.77;58.43;99461.28;15831364;28;20126;-53
2024/02/23 18:37:10;;;;;;;3.15;0.65;;;;;;;6.98;58.27;99447.56;15860208;28;20224;-50
2024/02/23 18:44:45;;;;;;;1.00;0.52;;;;;;;6.74;59.10;99443.88;15824668;28;20135;-52
2024/02/23 18:52:19;;;;;;;0.20;0.20;;;;;;;6.40;60.49;99439.81;15851956;28;20044;-50
2024/02/23 18:59:54;;;;;;;0.20;0.20;;;;;;;6.69;60.16;99456.22;15842387;28;20078;-49
2024/02/23 19:07:27;;;;;;;0.00;0.00;;;;;;;6.67;60.07;99460.94;15863196;28;20357;-51
2024/02/23 19:15:04;;;;;;;0.08;0.08;;;;;;;6.50;60.54;99445.47;15842818;28;20051;-51
2024/02/23 19:22:38;;;;;;;0.20;0.20;;;;;;;6.61;60.83;99436.78;15870528;28;20115;-51
2024/02/23 19:30:15;;;;;;;0.20;0.20;;;;;;;6.58;60.51;99428.41;15869821;28;20062;-51
2024/02/23 19:37:49;;;;;;;0.00;0.00;;;;;;;6.32;61.31;99448.06;15866413;28;20043;-49
2024/02/23 19:45:25;;;;;;;1.15;1.05;;;;;;;6.19;61.08;99448.13;15851097;28;20552;-52
2024/02/23 19:52:58;;;;;;;0.38;0.38;;;;;;;6.29;61.31;99446.63;15853482;28;20040;-48
2024/02/23 20:00:35;;;;;;;0.03;0.03;;;;;;;5.83;62.35;99445.00;15868466;28;20067;-52
2024/02/23 20:08:10;;;;;;;0.00;0.00;;;;;;;6.34;60.98;99445.97;15835715;28;20072;-54
2024/02/23 20:15:45;;;;;;;0.55;0.55;;;;;;;6.49;60.27;99451.84;15799832;28;20473;-51
2024/02/23 20:23:19;;;;;;;0.10;0.10;;;;;;;6.24;60.72;99483.75;15755005;28;20093;-47
2024/02/23 20:30:56;;;;;;;0.98;0.77;;;;;;;6.35;60.42;99492.94;15784735;28;20059;-50
2024/02/23 20:38:32;;;;;;;0.00;0.00;;;;;;;6.43;60.10;99495.34;15802128;28;20079;-50
2024/02/23 20:46:08;;;;;;;0.00;0.00;;;;;;;6.49;59.85;99501.69;15790606;28;20056;-50
2024/02/23 20:53:42;;;;;;;0.00;0.00;;;;;;;6.11;61.14;99500.63;15747239;28;20472;-52
2024/02/23 21:01:19;;;;;;;0.55;0.52;;;;;;;6.13;60.96;99495.91;15758080;28;20501;-52
2024/02/23 21:08:53;;;;;;;0.00;0.00;;;;;;;5.86;61.45;99484.50;15778002;28;20049;-51
2024/02/23 21:16:30;;;;;;;0.10;0.10;;;;;;;6.10;60.66;99460.88;15769702;28;20044;-51
2024/02/23 21:24:04;;;;;;;0.03;0.03;;;;;;;6.15;60.83;99463.72;15785351;28;20044;-51
2024/02/23 21:31:39;;;;;;;0.00;0.00;;;;;;;6.40;60.51;99471.78;15773122;28;20048;-48
2024/02/23 21:39:15;;;;;;;0.05;0.05;;;;;;;6.32;60.66;99466.72;15766911;28;20079;-51
2024/02/23 21:46:50;;;;;;;0.00;0.00;;;;;;;6.30;60.87;99460.78;15776077;28;20545;-51
2024/02/23 21:54:24;;;;;;;0.03;0.03;;;;;;;6.21;60.25;99480.72;15769360;28;20549;-50
2024/02/23 22:02:05;;;;;;;0.50;0.50;;;;;;;6.44;59.24;99482.84;15774194;28;20048;-52
2024/02/23 22:09:38;;;;;;;1.13;0.43;;;;;;;6.29;60.65;99491.09;15830090;22;20525;-49
2024/02/23 22:17:18;;;;;;;0.00;0.00;;;;;;;6.08;61.02;99510.88;15859227;28;20473;-47
2024/02/23 22:24:56;;;;;;;1.30;0.35;;;;;;;5.74;62.00;99514.66;15815730;28;20048;-50
2024/02/23 22:32:35;;;;;;;0.00;0.00;;;;;;;5.42;62.90;99511.84;15815659;28;20048;-50
2024/02/23 22:40:12;;;;;;;0.63;0.22;;;;;;;5.60;62.00;99493.41;15833045;28;20100;-51
2024/02/23 22:47:52;;;;;;;1.67;0.45;;;;;;;5.84;61.66;99496.41;15864229;28;20325;-50
2024/02/23 22:55:26;;;;;;;0.05;0.05;;;;;;;5.78;61.26;99481.25;15859735;28;20067;-51
2024/02/23 23:03:03;;;;;;;0.10;0.10;;;;;;;5.99;62.12;99474.88;15827767;28;20040;-49
2024/02/23 23:10:37;;;;;;;0.00;0.00;;;;;;;5.82;62.01;99485.13;15801724;28;20039;-50
2024/02/23 23:18:12;;;;;;;0.00;0.00;;;;;;;4.99;64.34;99472.41;15785617;28;20113;-50
2024/02/23 23:25:47;;;;;;;0.00;0.00;;;;;;;5.05;64.95;99489.38;15852120;28;20142;-47
2024/02/23 23:33:22;;;;;;;;;;;;;;;5.51;63.72;99493.84;15820025;28;20063;-49
2024/02/23 23:40:55;;;;;;;0.00;0.00;;;;;;;5.56;63.14;99489.50;15821299;28;20312;-50
2024/02/23 23:48:32;;;;;;;0.00;0.00;;;;;;;5.38;63.31;99487.50;15820522;28;20463;-49
2024/02/23 23:56:09;;;;;;;0.00;0.00;;;;;;;5.51;63.70;99485.84;15821129;28;20075;-49
